Aviation Digital Data Service (ADDS)

Output produced by METARs form (0716 UTC 24 March 2019)
found at http://www.aviationweather.gov/metar/data/
 
EHKD 240700Z AUTO 20001KT 9999 SCT013 OVC100 06/05 Q1029 GRN 27002KT CAVOK TEMPO SCT012 BKN100
TAF EHKD 240510Z 2406/2418 VRB02KT CAVOK 
     PROB40 
     TEMPO 2406/2409 SCT012 
     BECMG 2407/2409 27008KT
       
EHDL 240655Z AUTO VRB01KT 7000 BR NCD M00/M01 Q1029 WHT
EHGG 240655Z AUTO VRB01KT 8000 NSC 04/03 Q1029 BECMG 9999
TAF EHGG 240518Z 2406/2512 27008KT 6000 NSC 
     BECMG 2407/2410 9999 SCT030 
     TEMPO 2423/2503 29015G25KT 6000 SHRA SCT025CB BKN030 
     BECMG 2503/2506 30017KT 
     TEMPO 2506/2512 32022G32KT 5000 SHRAGS SCT025CB
       
EHEH 240655Z AUTO 01004KT 340V040 9999 SCT084 04/03 Q1029 BLU 01006KT CAVOK
TAF EHEH 240521Z 2406/2512 02007KT CAVOK 
     BECMG 2409/2411 33007KT 
     BECMG 2417/2420 25005KT 
     TEMPO 2502/2506 SCT015CB BKN020 
     BECMG 2503/2506 31010KT 
     BECMG 2507/2509 32015G28KT 
     TEMPO 2508/2512 33018G32KT FEW020CB BKN025
       
EHGR 240655Z AUTO 02005KT 330V050 8000 BR NCD 03/03 Q1029 BLU
EHLW 240655Z AUTO 17002KT 9999 OVC100 05/05 Q1029 BLU
TAF EHLW 240523Z 2406/2418 VRB02KT CAVOK 
     PROB30 
     TEMPO 2406/2409 SCT012 
     BECMG 2407/2409 27008KT
       
EHBK 240655Z AUTO 03006KT 9999 BKN009 OVC010 06/05 Q1028 BECMG BKN015
TAF EHBK 240517Z 2406/2512 01005KT 9999 BKN014 
     BECMG 2408/2411 FEW025 
     TEMPO 2504/2507 6000 RA SHRA SCT018TCU BKN030 
     BECMG 2507/2509 29014KT 
     TEMPO 2510/2512 31016G26KT 6000 SHRA SCT025CB
       
EHRD 240655Z AUTO 35001KT 0400 R06/0325N FG NSC 01/01 Q1029 BECMG 9999 NSW
TAF EHRD 240502Z 2406/2512 36005KT CAVOK 
     PROB30 2406/2407 1000 BCFG 
     BECMG 2410/2413 29010KT 
     BECMG 2417/2420 23007KT 
     BECMG 2422/2501 31017G27KT 
     TEMPO 2500/2503 5000 SHRA RA BKN018 SCT020TCU 
     PROB40 
     TEMPO 2508/2511 32020G33KT 5000 SHRA SCT020TCU
       
EHAM 240655Z 00000KT 9999 FEW012 02/01 Q1029 NOSIG
TAF EHAM 240448Z 2406/2512 36005KT CAVOK 
     PROB30 2406/2407 5000 BR MIFG 
     BECMG 2410/2413 29010KT 
     BECMG 2417/2420 23007KT 
     BECMG 2422/2501 31017G27KT 
     TEMPO 2500/2503 5000 SHRA RA BKN018 SCT020TCU 
     PROB40 
     TEMPO 2508/2511 32020G33KT 5000 SHRA SCT020TCU
       
EHVK 240655Z AUTO 36003KT 9000 BR NCD 03/03 Q1028 BLU
TAF EHVK 240522Z 2406/2418 02007KT CAVOK 
     BECMG 2409/2411 33007KT
       
EHWO 240708Z AUTO 06004KT 8000 BR FEW400 04/03 Q1029 BLU